Time;durP1;ratioP1;P1;durP2;ratioP2;P2;SDS_P1;SDS_P2;PMS_P1;PMS_P2;Temp;Humidity;BMP_temperature;BMP_pressure;BME280_temperature;BME280_humidity;BME280_pressure;Samples;Min_cycle;Max_cycle;Signal;HPM_P1;HPM_P2
2023/08/19 00:01:59;;;;;;;4.70;4.40;;;20.00;99.90;;;;;;5079840;28;20419;-84
2023/08/19 00:04:27;;;;;;;2.73;2.47;;;20.00;99.90;;;;;;5081044;28;20865;-83
2023/08/19 00:06:54;;;;;;;2.90;2.80;;;20.00;99.90;;;;;;5081572;28;20452;-84
2023/08/19 00:09:23;;;;;;;3.67;3.47;;;20.00;99.90;;;;;;5078081;28;20415;-85
2023/08/19 00:11:54;;;;;;;3.83;3.63;;;20.10;99.90;;;;;;5063292;28;20482;-86
2023/08/19 00:14:25;;;;;;;4.87;4.47;;;20.20;99.90;;;;;;5050173;28;20511;-84
2023/08/19 00:16:53;;;;;;;3.33;3.10;;;20.20;99.90;;;;;;5058430;28;20451;-78
2023/08/19 00:19:20;;;;;;;6.60;5.53;;;20.20;99.90;;;;;;5080393;28;20538;-86
2023/08/19 00:21:50;;;;;;;4.70;4.30;;;20.30;99.90;;;;;;5085136;28;20729;-89
2023/08/19 00:24:17;;;;;;;3.10;2.90;;;20.20;99.90;;;;;;5090267;28;20465;-84
2023/08/19 00:26:44;;;;;;;4.40;4.20;;;20.10;99.90;;;;;;5080332;28;20852;-82
2023/08/19 00:29:11;;;;;;;1.97;1.87;;;20.20;99.90;;;;;;5082648;28;20479;-82
2023/08/19 00:31:39;;;;;;;3.50;3.23;;;20.20;99.90;;;;;;5084018;28;20513;-84
2023/08/19 00:34:07;;;;;;;3.40;3.20;;;20.20;99.90;;;;;;5065895;28;20428;-81
2023/08/19 00:36:34;;;;;;;3.10;2.90;;;20.00;99.90;;;;;;5082135;28;20415;-86
2023/08/19 00:39:01;;;;;;;2.73;2.53;;;20.10;99.90;;;;;;5076128;28;20483;-84
2023/08/19 00:41:28;;;;;;;3.80;3.60;;;20.20;99.90;;;;;;5062536;28;20451;-88
2023/08/19 00:43:57;;;;;;;2.00;1.90;;;20.20;99.90;;;;;;5080049;28;20775;-80
2023/08/19 00:46:25;;;;;;;4.70;4.40;;;20.10;99.90;;;;;;5079844;28;20456;-89
2023/08/19 00:48:53;;;;;;;3.57;3.37;;;19.90;99.90;;;;;;5080107;28;20508;-87
2023/08/19 00:51:20;;;;;;;2.10;2.00;;;20.00;99.90;;;;;;5078093;28;20889;-84
2023/08/19 00:53:50;;;;;;;1.77;1.67;;;20.20;99.90;;;;;;5080518;28;20497;-85
2023/08/19 00:56:18;;;;;;;1.63;1.53;;;20.10;99.90;;;;;;5080918;28;20452;-85
2023/08/19 00:58:48;;;;;;;3.63;3.43;;;20.00;99.90;;;;;;5077892;28;20451;-84
2023/08/19 01:01:18;;;;;;;4.37;4.10;;;20.00;99.90;;;;;;5080634;28;20436;-87
2023/08/19 01:03:46;;;;;;;2.80;2.57;;;19.90;99.90;;;;;;5061344;28;20612;-86
2023/08/19 01:06:36;;;;;;;1.40;1.30;;;20.00;99.90;;;;;;5085069;28;20527;-86
2023/08/19 01:09:24;;;;;;;4.60;4.30;;;19.90;99.90;;;;;;5063399;28;20476;-85
2023/08/19 01:12:08;;;;;;;4.07;3.87;;;19.90;99.90;;;;;;5064917;28;20578;-80
2023/08/19 01:14:39;;;;;;;3.50;3.30;;;19.80;99.90;;;;;;5069719;28;20503;-88
2023/08/19 01:17:10;;;;;;;4.53;2.30;;;19.70;99.90;;;;;;5064709;28;20549;-76
2023/08/19 01:19:41;;;;;;;3.10;2.90;;;19.70;99.90;;;;;;5083190;28;20407;-87
2023/08/19 01:22:26;;;;;;;1.00;1.00;;;19.70;99.90;;;;;;5088498;28;20468;-88
2023/08/19 01:24:54;;;;;;;2.40;2.30;;;19.70;99.90;;;;;;5087099;28;20495;-88
2023/08/19 01:27:28;;;;;;;4.00;3.77;;;19.60;99.90;;;;;;5062891;28;20563;-86
2023/08/19 01:30:07;;;;;;;4.27;3.97;;;19.60;99.90;;;;;;5058341;28;20435;-85
2023/08/19 01:32:39;;;;;;;4.40;4.00;;;19.60;99.90;;;;;;5073257;28;20517;-87
2023/08/19 01:35:24;;;;;;;4.33;3.73;;;19.60;99.90;;;;;;5062087;28;20479;-86
2023/08/19 01:38:00;;;;;;;2.00;1.80;;;19.70;99.90;;;;;;5061885;28;20440;-84
2023/08/19 01:40:31;;;;;;;2.50;2.40;;;19.60;99.90;;;;;;5080140;28;20432;-85
2023/08/19 01:43:07;;;;;;;2.63;2.53;;;19.60;99.90;;;;;;5070877;28;20916;-85
2023/08/19 01:45:42;;;;;;;5.07;4.63;;;19.50;99.90;;;;;;5071241;28;20422;-86
2023/08/19 01:48:11;;;;;;;1.97;1.87;;;19.50;99.90;;;;;;5079700;28;20446;-86
2023/08/19 01:51:03;;;;;;;4.33;4.03;;;19.50;99.90;;;;;;5074463;28;20644;-86
2023/08/19 01:53:40;;;;;;;4.10;3.87;;;19.40;99.90;;;;;;5079665;28;20537;-85
2023/08/19 01:56:33;;;;;;;4.33;4.07;;;19.50;99.90;;;;;;5060120;28;20466;-88
2023/08/19 01:59:06;;;;;;;2.37;2.27;;;19.40;99.90;;;;;;5064030;28;20444;-85
2023/08/19 02:01:39;;;;;;;1.83;1.73;;;19.40;99.90;;;;;;5058939;28;20454;-85
2023/08/19 02:04:16;;;;;;;4.90;4.50;;;19.40;99.90;;;;;;5077106;28;20586;-85
2023/08/19 02:06:47;;;;;;;3.87;2.40;;;19.30;99.90;;;;;;5075879;28;20447;-86
2023/08/19 02:09:17;;;;;;;3.50;3.30;;;19.30;99.90;;;;;;5059994;28;20780;-85
2023/08/19 02:11:50;;;;;;;4.90;4.50;;;19.30;99.90;;;;;;5060372;28;20439;-85
2023/08/19 02:14:30;;;;;;;;;;;;;;;;;;;;;
2023/08/19 02:17:06;;;;;;;1.90;1.80;;;19.20;99.90;;;;;;5078236;28;20452;-85
2023/08/19 02:19:34;;;;;;;4.70;4.37;;;19.20;99.90;;;;;;5089771;28;20444;-85
2023/08/19 02:22:21;;;;;;;4.33;4.03;;;19.30;99.90;;;;;;5057077;28;20458;-86
2023/08/19 02:25:10;;;;;;;4.27;3.83;;;19.20;99.90;;;;;;5062397;28;20432;-86
2023/08/19 02:27:41;;;;;;;5.20;4.90;;;19.20;99.90;;;;;;5079750;28;20531;-85
2023/08/19 02:30:11;;;;;;;2.83;2.63;;;19.20;99.90;;;;;;5059625;28;20439;-86
2023/08/19 02:32:48;;;;;;;5.13;4.77;;;19.20;99.90;;;;;;5066285;28;20463;-86
2023/08/19 02:35:23;;;;;;;3.80;3.60;;;19.20;99.90;;;;;;5074104;28;20499;-88
2023/08/19 02:37:54;;;;;;;4.50;4.20;;;19.10;99.90;;;;;;5069190;28;20433;-87
2023/08/19 02:40:33;;;;;;;4.83;4.53;;;19.10;99.90;;;;;;5088225;28;20420;-86
2023/08/19 02:43:11;;;;;;;;;;;;;;;;;;;;;
2023/08/19 02:45:58;;;;;;;2.40;2.30;;;19.10;99.90;;;;;;5070710;28;20518;-87
2023/08/19 02:48:26;;;;;;;3.67;3.37;;;19.10;99.90;;;;;;5071059;28;20470;-85
2023/08/19 02:50:58;;;;;;;1.80;1.70;;;19.10;99.90;;;;;;5087126;28;20470;-86
2023/08/19 02:53:27;;;;;;;5.50;3.47;;;18.90;99.90;;;;;;5085701;28;20491;-85
2023/08/19 02:55:55;;;;;;;4.27;3.90;;;19.10;99.90;;;;;;5059797;28;20446;-86
2023/08/19 02:58:25;;;;;;;3.07;2.87;;;19.10;99.90;;;;;;5076475;28;20511;-85
2023/08/19 03:00:56;;;;;;;1.90;1.80;;;19.10;99.90;;;;;;5076571;28;20456;-85
2023/08/19 03:03:35;;;;;;;4.80;4.47;;;19.00;99.90;;;;;;5054715;28;20446;-87
2023/08/19 03:06:11;;;;;;;2.40;2.30;;;18.90;99.90;;;;;;5058839;28;20556;-86
2023/08/19 03:08:52;;;;;;;2.60;2.50;;;18.90;99.90;;;;;;5052227;28;20634;-86
2023/08/19 03:11:25;;;;;;;3.63;3.43;;;18.90;99.90;;;;;;5056896;28;20513;-88
2023/08/19 03:13:59;;;;;;;3.30;3.10;;;18.90;99.90;;;;;;5056574;28;20490;-89
2023/08/19 03:16:34;;;;;;;2.63;2.53;;;18.90;99.90;;;;;;5078703;28;20484;-88
2023/08/19 03:19:04;;;;;;;3.70;3.40;;;18.90;99.90;;;;;;5061875;28;20430;-85
2023/08/19 03:21:44;;;;;;;3.67;3.47;;;18.90;99.90;;;;;;5077800;28;20440;-87
2023/08/19 03:24:32;;;;;;;;;;;;;;;;;;;;;
2023/08/19 03:27:06;;;;;;;3.27;3.03;;;18.90;99.90;;;;;;5076585;28;20846;-86
2023/08/19 03:29:38;;;;;;;3.80;3.60;;;18.80;99.90;;;;;;5048925;28;20718;-85
2023/08/19 03:32:10;;;;;;;4.43;3.30;;;18.90;99.90;;;;;;5077071;28;20511;-86
2023/08/19 03:34:52;;;;;;;6.17;5.63;;;18.80;99.90;;;;;;5070010;28;20665;-88
2023/08/19 03:37:33;;;;;;;3.37;3.17;;;18.80;99.90;;;;;;5074679;28;20415;-77
2023/08/19 03:40:00;;;;;;;6.23;5.73;;;18.90;99.90;;;;;;5070396;28;20510;-85
2023/08/19 03:42:49;;;;;;;4.40;4.10;;;18.90;99.90;;;;;;5059630;28;20424;-88
2023/08/19 03:45:19;;;;;;;5.70;3.93;;;18.90;99.90;;;;;;5059510;28;20454;-86
2023/08/19 03:47:46;;;;;;;6.70;5.93;;;18.80;99.90;;;;;;5077266;28;20460;-85
2023/08/19 03:50:13;;;;;;;4.77;4.57;;;18.80;99.90;;;;;;5077340;28;20505;-83
2023/08/19 03:52:44;;;;;;;3.83;3.27;;;18.90;99.90;;;;;;5083634;28;20538;-87
2023/08/19 03:55:21;;;;;;;4.33;4.07;;;18.80;99.90;;;;;;5061015;28;20419;-85
2023/08/19 03:57:51;;;;;;;3.07;2.87;;;18.80;99.90;;;;;;5061673;28;20442;-86
2023/08/19 04:00:38;;;;;;;5.60;5.07;;;18.80;99.90;;;;;;5060580;28;20451;-85
2023/08/19 04:03:05;;;;;;;4.93;4.03;;;18.80;99.90;;;;;;5079731;28;20779;-86
2023/08/19 04:05:52;;;;;;;3.80;3.57;;;18.80;99.90;;;;;;5062321;28;20432;-85
2023/08/19 04:08:25;;;;;;;8.43;4.47;;;18.80;99.90;;;;;;5080142;28;20444;-85
2023/08/19 04:11:07;;;;;;;5.50;4.70;;;19.00;99.90;;;;;;5059249;28;20507;-85
2023/08/19 04:13:46;;;;;;;4.00;3.70;;;18.70;99.90;;;;;;5079508;28;20645;-84
2023/08/19 04:16:23;;;;;;;3.27;3.17;;;18.90;99.90;;;;;;5080040;28;20486;-86
2023/08/19 04:18:54;;;;;;;5.27;4.97;;;18.90;99.90;;;;;;5081163;28;20680;-86
2023/08/19 04:21:26;;;;;;;3.10;3.00;;;19.00;99.90;;;;;;5062310;28;20482;-87
2023/08/19 04:24:05;;;;;;;4.60;4.23;;;19.00;99.90;;;;;;5062666;28;20444;-85
2023/08/19 04:26:46;;;;;;;3.90;3.70;;;19.00;99.90;;;;;;5057895;28;20460;-86
2023/08/19 04:29:15;;;;;;;6.00;4.00;;;19.10;99.90;;;;;;5086912;28;20426;-85
2023/08/19 04:32:05;;;;;;;;;;;;;;;;;;;;;
2023/08/19 04:34:54;;;;;;;7.37;5.97;;;19.20;99.90;;;;;;5078104;28;20504;-85
2023/08/19 04:37:24;;;;;;;3.47;3.37;;;19.30;99.90;;;;;;5063381;28;20604;-85
2023/08/19 04:39:52;;;;;;;6.80;6.40;;;19.30;99.90;;;;;;5080560;28;20490;-89
2023/08/19 04:42:34;;;;;;;4.57;4.20;;;19.20;99.90;;;;;;5076053;28;20439;-87
2023/08/19 04:45:32;;;;;;;;;;;;;;;;;;;;;
2023/08/19 04:48:27;;;;;;;4.20;3.90;;;19.40;99.90;;;;;;4999444;28;20435;-87
2023/08/19 04:51:07;;;;;;;6.50;5.87;;;19.60;99.90;;;;;;4994438;28;20435;-89
2023/08/19 04:53:39;;;;;;;2.87;2.73;;;19.60;99.90;;;;;;5088737;28;20468;-89
2023/08/19 04:56:18;;;;;;;7.23;6.73;;;19.60;99.90;;;;;;5066792;28;20425;-84
2023/08/19 04:58:51;;;;;;;2.60;2.50;;;19.80;99.90;;;;;;5062628;28;20690;-84
2023/08/19 05:01:20;;;;;;;3.93;3.73;;;19.80;99.90;;;;;;5075720;28;20477;-85
2023/08/19 05:03:55;;;;;;;7.87;4.13;;;20.00;99.90;;;;;;5079390;28;20503;-85
2023/08/19 05:06:40;;;;;;;5.10;2.47;;;20.10;99.90;;;;;;5078749;28;20464;-87
2023/08/19 05:09:12;;;;;;;5.80;5.50;;;20.20;99.90;;;;;;5061509;28;20635;-89
2023/08/19 05:11:42;;;;;;;2.37;2.27;;;20.30;99.90;;;;;;5048304;28;20519;-84
2023/08/19 05:14:14;;;;;;;4.00;3.70;;;20.30;99.90;;;;;;5061250;28;20472;-85
2023/08/19 05:16:57;;;;;;;5.00;3.23;;;20.40;99.90;;;;;;5071661;28;20478;-86
2023/08/19 05:19:26;;;;;;;5.10;4.53;;;20.60;99.90;;;;;;5069916;28;20485;-88
2023/08/19 05:21:56;;;;;;;2.73;2.63;;;20.70;99.90;;;;;;5062649;28;20422;-87
2023/08/19 05:24:36;;;;;;;3.07;2.83;;;20.80;99.90;;;;;;5063438;28;20429;-87
2023/08/19 05:27:04;;;;;;;2.30;2.10;;;20.90;99.90;;;;;;5053680;28;20440;-86
2023/08/19 05:29:32;;;;;;;7.00;6.43;;;21.00;99.90;;;;;;5057120;28;20449;-86
2023/08/19 05:32:00;;;;;;;2.07;1.97;;;21.10;99.90;;;;;;5061389;28;20479;-86
2023/08/19 05:34:27;;;;;;;3.97;3.67;;;21.20;99.90;;;;;;5052831;28;20619;-86
2023/08/19 05:37:00;;;;;;;3.30;3.00;;;21.30;99.90;;;;;;5079319;28;20429;-87
2023/08/19 05:39:28;;;;;;;2.80;2.70;;;21.30;99.90;;;;;;5062611;28;20499;-86
2023/08/19 05:41:59;;;;;;;1.93;1.83;;;21.50;99.90;;;;;;5080262;28;20432;-87
2023/08/19 05:44:27;;;;;;;2.63;2.43;;;21.50;99.90;;;;;;5072040;28;20434;-89
2023/08/19 05:46:54;;;;;;;3.67;2.57;;;21.80;99.90;;;;;;5080041;28;20478;-85
2023/08/19 05:49:21;;;;;;;2.37;2.17;;;21.70;99.90;;;;;;5087756;28;20426;-85
2023/08/19 05:51:56;;;;;;;1.53;1.43;;;22.00;99.90;;;;;;5070826;28;20425;-87
2023/08/19 05:54:24;;;;;;;2.67;2.50;;;22.10;99.90;;;;;;5091960;28;20483;-87
2023/08/19 05:56:51;;;;;;;1.50;1.40;;;22.20;99.90;;;;;;5084825;28;20441;-87
2023/08/19 05:59:19;;;;;;;0.90;0.90;;;22.50;99.90;;;;;;5054245;28;20463;-88
2023/08/19 06:01:46;;;;;;;3.03;2.83;;;22.60;99.90;;;;;;5076532;28;20415;-87
2023/08/19 06:04:15;;;;;;;1.80;1.70;;;22.90;99.90;;;;;;5080145;28;20415;-88
2023/08/19 06:06:42;;;;;;;2.10;2.00;;;23.00;99.90;;;;;;5078742;28;20445;-87
2023/08/19 06:09:09;;;;;;;2.70;2.50;;;23.10;99.90;;;;;;5082124;28;20455;-86
2023/08/19 06:11:51;;;;;;;2.53;2.43;;;23.20;99.90;;;;;;5080808;28;20419;-87
2023/08/19 06:14:19;;;;;;;1.43;1.33;;;23.10;99.90;;;;;;5052464;28;20449;-87
2023/08/19 06:16:46;;;;;;;2.83;2.73;;;23.40;99.90;;;;;;5073825;28;20425;-85
2023/08/19 06:19:14;;;;;;;2.23;2.13;;;23.60;99.90;;;;;;5081210;28;20489;-88
2023/08/19 06:21:42;;;;;;;4.27;3.87;;;23.90;99.90;;;;;;5080922;28;20421;-86
2023/08/19 06:24:10;;;;;;;2.10;2.00;;;24.10;99.90;;;;;;5058978;28;20484;-87
2023/08/19 06:29:15;;;;;;;1.90;1.80;;;24.00;99.90;;;;;;5244919;23;20491;-84
2023/08/19 06:31:45;;;;;;;1.60;1.50;;;24.00;99.90;;;;;;5153559;23;20507;-88
2023/08/19 06:34:13;;;;;;;2.20;2.10;;;24.40;99.90;;;;;;5045211;28;20459;-85
2023/08/19 06:36:42;;;;;;;3.83;3.60;;;24.40;99.90;;;;;;5042019;28;20424;-88
2023/08/19 06:39:23;;;;;;;2.03;1.93;;;24.40;99.90;;;;;;5059450;28;20643;-87
2023/08/19 06:41:55;;;;;;;4.00;3.70;;;24.70;99.90;;;;;;5112252;22;20578;-87
2023/08/19 06:44:24;;;;;;;1.87;1.77;;;25.10;99.90;;;;;;5060311;28;20450;-84
2023/08/19 06:46:54;;;;;;;0.80;0.80;;;25.20;99.90;;;;;;5051075;28;20469;-84
2023/08/19 06:49:22;;;;;;;1.93;1.83;;;25.30;99.90;;;;;;5265359;23;20824;-89
2023/08/19 06:51:50;;;;;;;1.10;1.10;;;25.90;99.90;;;;;;5061722;28;20539;-86
2023/08/19 06:54:17;;;;;;;1.50;1.40;;;26.10;99.90;;;;;;5061123;28;20503;-90
2023/08/19 06:57:02;;;;;;;1.10;1.10;;;26.60;99.90;;;;;;5045674;28;20444;-84
2023/08/19 06:59:36;;;;;;;1.73;1.63;;;27.00;99.90;;;;;;5035965;28;20449;-86
2023/08/19 07:02:04;;;;;;;3.47;3.27;;;27.30;99.90;;;;;;5062895;28;20640;-86
2023/08/19 07:04:35;;;;;;;1.40;1.30;;;27.60;99.90;;;;;;5062574;28;20419;-84
2023/08/19 07:07:04;;;;;;;4.17;3.50;;;27.70;99.90;;;;;;5064065;28;20423;-88
2023/08/19 07:12:12;;;;;;;2.10;2.00;;;28.50;99.90;;;;;;5161006;23;20494;-87
2023/08/19 07:14:40;;;;;;;2.23;2.13;;;28.90;99.90;;;;;;5059710;28;20539;-88
2023/08/19 07:17:09;;;;;;;3.30;3.10;;;29.30;99.30;;;;;;5061019;28;20465;-88
2023/08/19 07:19:40;;;;;;;2.83;2.70;;;29.40;97.40;;;;;;5055053;28;20445;-84
2023/08/19 07:22:08;;;;;;;2.23;2.10;;;29.30;97.40;;;;;;5120353;23;20486;-87
2023/08/19 07:24:35;;;;;;;2.90;2.80;;;29.70;96.60;;;;;;5061672;28;20508;-89
2023/08/19 07:27:04;;;;;;;1.33;1.33;;;29.80;95.60;;;;;;5061828;28;20769;-90
2023/08/19 07:29:32;;;;;;;2.57;2.47;;;30.40;94.40;;;;;;5063175;28;20491;-85
2023/08/19 07:32:01;;;;;;;1.77;1.67;;;31.20;92.10;;;;;;5035072;28;20467;-88
2023/08/19 07:34:29;;;;;;;9.20;2.50;;;31.30;89.40;;;;;;5072701;28;20540;-90
2023/08/19 07:39:26;;;;;;;10.67;3.10;;;32.50;81.50;;;;;;4975631;28;20452;-89
2023/08/19 07:41:53;;;;;;;2.60;2.40;;;32.90;78.20;;;;;;4961408;29;20484;-88
2023/08/19 07:44:20;;;;;;;1.47;1.43;;;33.10;76.40;;;;;;4969691;29;20493;-85
2023/08/19 07:46:47;;;;;;;2.13;2.03;;;33.60;73.40;;;;;;5361460;23;20495;-87
2023/08/19 07:49:15;;;;;;;2.03;1.93;;;33.10;69.70;;;;;;5179428;23;20512;-85
2023/08/19 07:54:29;;;;;;;2.30;2.20;;;33.60;68.90;;;;;;5094658;23;20532;-91
2023/08/19 07:56:58;;;;;;;1.83;1.73;;;34.40;64.20;;;;;;5065008;28;20493;-86
2023/08/19 07:59:25;;;;;;;1.93;1.83;;;34.50;65.70;;;;;;5156402;23;20484;-86
2023/08/19 08:01:54;;;;;;;1.90;1.80;;;33.80;64.20;;;;;;5052452;28;20473;-85
2023/08/19 08:04:22;;;;;;;1.30;1.30;;;33.50;67.20;;;;;;5066991;28;20439;-87
2023/08/19 08:06:50;;;;;;;1.37;1.27;;;33.60;64.70;;;;;;5066040;28;20487;-86
2023/08/19 08:09:18;;;;;;;2.07;1.53;;;34.00;68.90;;;;;;5066263;28;20472;-86
2023/08/19 08:11:47;;;;;;;1.97;1.87;;;34.40;63.80;;;;;;5052961;28;20507;-87
2023/08/19 08:14:15;;;;;;;2.43;2.33;;;34.10;63.00;;;;;;5064689;28;20468;-85
2023/08/19 08:16:42;;;;;;;7.80;2.20;;;34.00;63.40;;;;;;5074677;28;20484;-83
2023/08/19 08:19:09;;;;;;;1.47;1.47;;;33.70;65.00;;;;;;5297604;22;20544;-83
2023/08/19 08:21:36;;;;;;;3.90;2.50;;;34.40;66.50;;;;;;5065570;28;20645;-88
2023/08/19 08:24:05;;;;;;;2.30;2.20;;;34.90;63.80;;;;;;5054231;28;20428;-93
2023/08/19 08:26:32;;;;;;;2.10;2.00;;;34.40;64.00;;;;;;5066966;28;20468;-85
2023/08/19 08:28:59;;;;;;;2.47;2.37;;;35.10;63.70;;;;;;5066418;28;20532;-83
2023/08/19 08:31:26;;;;;;;2.43;2.33;;;35.70;57.20;;;;;;5076220;28;20628;-87
2023/08/19 08:33:53;;;;;;;2.80;2.70;;;34.90;58.80;;;;;;5246558;23;20750;-85
2023/08/19 08:36:20;;;;;;;2.23;2.13;;;34.80;62.10;;;;;;5064746;28;20504;-83
2023/08/19 08:38:48;;;;;;;1.90;1.80;;;34.20;59.80;;;;;;5220731;23;20813;-88
2023/08/19 08:43:52;;;;;;;1.40;1.40;;;35.40;59.60;;;;;;5290462;23;20472;-83
2023/08/19 08:46:20;;;;;;;1.90;1.80;;;34.60;59.20;;;;;;5066496;28;20513;-84
2023/08/19 08:54:11;;;;;;;2.30;2.20;;;34.60;61.20;;;;;;5065897;23;20473;-87
2023/08/19 08:56:39;;;;;;;1.60;1.60;;;34.60;63.30;;;;;;5050720;28;20530;-85
2023/08/19 08:59:05;;;;;;;1.77;1.67;;;35.30;60.50;;;;;;5047341;28;20476;-89
2023/08/19 09:01:35;;;;;;;1.90;1.80;;;35.90;59.00;;;;;;5045527;28;20517;-87
2023/08/19 09:04:04;;;;;;;3.13;2.33;;;36.50;56.20;;;;;;5040800;28;20469;-89
2023/08/19 09:06:32;;;;;;;2.57;2.47;;;35.90;56.00;;;;;;5050147;28;20445;-88
2023/08/19 09:09:08;;;;;;;2.40;2.30;;;35.70;56.60;;;;;;5024864;28;20842;-80
2023/08/19 09:11:39;;;;;;;1.80;1.70;;;35.20;57.10;;;;;;5045108;28;20493;-84
2023/08/19 09:14:18;;;;;;;2.37;1.97;;;35.40;58.80;;;;;;5046047;28;20527;-84
2023/08/19 09:16:44;;;;;;;2.37;2.27;;;35.70;59.40;;;;;;5045753;28;20490;-84
2023/08/19 09:19:12;;;;;;;2.50;2.40;;;35.80;56.80;;;;;;5042351;28;20437;-87
2023/08/19 09:21:39;;;;;;;2.33;2.23;;;35.70;58.40;;;;;;5044881;28;20512;-83
2023/08/19 09:24:06;;;;;;;2.23;2.10;;;35.70;57.90;;;;;;5049262;28;20905;-82
2023/08/19 09:26:36;;;;;;;1.63;1.53;;;35.20;56.00;;;;;;5274923;23;21324;-83
2023/08/19 09:29:04;;;;;;;1.80;1.70;;;34.70;57.90;;;;;;5048004;28;20651;-84
2023/08/19 09:31:34;;;;;;;1.63;1.53;;;33.90;58.80;;;;;;5037054;28;20438;-84
2023/08/19 09:34:01;;;;;;;2.17;2.07;;;33.60;61.60;;;;;;5044332;28;20671;-84
2023/08/19 09:36:28;;;;;;;2.20;2.10;;;32.70;62.90;;;;;;5049748;28;20556;-81
2023/08/19 09:38:56;;;;;;;1.83;1.63;;;32.70;63.40;;;;;;5418716;23;20789;-85
2023/08/19 09:41:27;;;;;;;2.90;2.70;;;32.50;63.00;;;;;;5048097;28;20451;-88
2023/08/19 09:43:56;;;;;;;1.83;1.73;;;32.20;64.20;;;;;;5046179;28;20636;-87
2023/08/19 09:49:09;;;;;;;1.53;1.43;;;32.30;61.90;;;;;;5045124;23;20475;-88
2023/08/19 09:51:36;;;;;;;2.77;2.63;;;32.50;63.00;;;;;;5204397;23;20519;-83
2023/08/19 09:54:18;;;;;;;1.57;1.47;;;32.20;64.10;;;;;;5149989;22;20621;-87
2023/08/19 09:56:53;;;;;;;1.80;1.70;;;31.90;65.10;;;;;;5177771;22;20538;-86
2023/08/19 09:59:19;;;;;;;1.77;1.67;;;31.60;66.30;;;;;;5364366;22;20500;-86
2023/08/19 10:01:48;;;;;;;2.50;2.30;;;31.70;66.50;;;;;;5180843;22;20462;-84
2023/08/19 10:04:24;;;;;;;3.40;3.20;;;31.40;67.90;;;;;;5042369;28;20545;-87
2023/08/19 10:06:54;;;;;;;4.73;4.33;;;31.50;69.20;;;;;;5036549;28;20450;-86
2023/08/19 10:09:26;;;;;;;2.57;2.47;;;31.50;67.60;;;;;;5047735;28;20517;-87
2023/08/19 10:11:55;;;;;;;2.63;2.50;;;31.70;68.00;;;;;;5034412;28;20467;-86
2023/08/19 10:17:05;;;;;;;2.10;2.00;;;31.60;67.90;;;;;;5099280;23;20649;-87
2023/08/19 10:19:54;;;;;;;1.73;1.63;;;31.40;68.10;;;;;;5380791;23;20493;-87
2023/08/19 10:22:21;;;;;;;4.27;3.87;;;31.40;69.00;;;;;;5046910;28;20773;-85
2023/08/19 10:24:51;;;;;;;2.73;2.53;;;31.40;69.80;;;;;;5037648;28;20424;-86
2023/08/19 10:27:19;;;;;;;3.17;2.97;;;31.70;70.00;;;;;;5041803;28;20536;-85
2023/08/19 10:29:48;;;;;;;1.63;1.53;;;31.60;70.50;;;;;;5040374;28;20817;-85
2023/08/19 10:32:29;;;;;;;2.40;2.20;;;31.60;68.20;;;;;;5038804;28;20711;-84
2023/08/19 10:35:09;;;;;;;2.10;2.00;;;31.30;69.00;;;;;;5037591;28;20434;-88
2023/08/19 10:37:42;;;;;;;2.70;2.57;;;31.20;69.90;;;;;;5040024;28;20757;-85
2023/08/19 10:40:14;;;;;;;2.37;2.27;;;31.50;70.60;;;;;;5053318;28;20760;-85
2023/08/19 10:42:41;;;;;;;2.07;1.97;;;31.60;68.40;;;;;;5043418;28;20460;-84
2023/08/19 10:45:15;;;;;;;2.20;2.10;;;31.40;69.10;;;;;;5043191;28;20653;-87
2023/08/19 10:47:42;;;;;;;3.77;3.47;;;31.60;69.10;;;;;;5051083;28;20453;-83
2023/08/19 10:50:11;;;;;;;1.53;1.43;;;31.90;67.80;;;;;;5036726;28;20783;-86
2023/08/19 10:53:04;;;;;;;2.17;2.07;;;31.70;68.20;;;;;;5044314;28;20508;-89
2023/08/19 10:55:50;;;;;;;2.47;2.37;;;31.90;66.50;;;;;;5035576;28;20461;-87
2023/08/19 10:58:18;;;;;;;2.00;1.90;;;31.60;66.70;;;;;;5047403;28;20421;-88
2023/08/19 11:00:47;;;;;;;1.90;1.80;;;31.70;67.00;;;;;;5038211;28;20473;-87
2023/08/19 11:03:15;;;;;;;2.20;2.10;;;31.60;67.20;;;;;;5044154;28;20512;-86
2023/08/19 11:05:49;;;;;;;2.80;2.63;;;31.70;66.70;;;;;;5025274;28;20450;-83
2023/08/19 11:08:16;;;;;;;2.57;2.37;;;31.60;66.70;;;;;;5037476;28;20461;-82
2023/08/19 11:10:47;;;;;;;1.70;1.60;;;31.60;65.20;;;;;;5027945;28;20442;-83
2023/08/19 11:13:16;;;;;;;3.73;3.53;;;31.50;65.60;;;;;;5028257;28;20505;-83
2023/08/19 11:15:49;;;;;;;1.67;1.57;;;31.50;66.40;;;;;;5023986;28;20405;-86
2023/08/19 11:18:20;;;;;;;2.03;1.90;;;31.50;66.00;;;;;;5005775;28;20485;-82
2023/08/19 11:20:47;;;;;;;1.83;1.73;;;31.60;66.70;;;;;;5031404;28;20623;-78
2023/08/19 11:23:24;;;;;;;2.63;2.43;;;31.20;64.40;;;;;;5029970;28;20474;-85
2023/08/19 11:25:51;;;;;;;1.80;1.70;;;31.00;64.10;;;;;;5022912;28;20615;-85
2023/08/19 11:28:18;;;;;;;2.13;2.03;;;30.80;65.70;;;;;;5014641;28;20477;-81
2023/08/19 11:30:46;;;;;;;2.00;1.90;;;31.00;64.20;;;;;;5043559;28;20521;-84
2023/08/19 11:33:16;;;;;;;1.83;1.73;;;31.10;64.90;;;;;;5031995;28;20473;-82
2023/08/19 11:35:43;;;;;;;2.10;2.00;;;31.30;64.40;;;;;;5018088;28;20438;-83
2023/08/19 11:38:17;;;;;;;2.63;2.43;;;31.20;64.00;;;;;;5034909;28;20409;-86
2023/08/19 11:40:44;;;;;;;2.13;2.03;;;31.40;66.20;;;;;;5043267;28;20503;-82
2023/08/19 11:43:13;;;;;;;3.53;3.03;;;31.40;64.00;;;;;;5034020;28;20545;-84
2023/08/19 11:45:41;;;;;;;1.50;1.40;;;31.50;64.60;;;;;;5028396;28;20447;-84
2023/08/19 11:48:14;;;;;;;1.63;1.53;;;31.50;64.80;;;;;;5024345;28;20414;-84
2023/08/19 11:50:48;;;;;;;1.77;1.67;;;31.50;63.20;;;;;;5028512;28;20474;-85
2023/08/19 11:53:26;;;;;;;2.57;2.37;;;31.70;62.70;;;;;;5033133;28;20452;-88
2023/08/19 11:56:00;;;;;;;1.83;1.73;;;31.60;62.20;;;;;;5030402;28;20450;-87
2023/08/19 11:58:40;;;;;;;2.07;1.43;;;31.60;62.80;;;;;;5026597;28;20438;-85
2023/08/19 12:01:07;;;;;;;1.80;1.70;;;31.80;62.40;;;;;;5026308;28;20469;-87
2023/08/19 12:03:34;;;;;;;2.37;2.17;;;31.70;60.00;;;;;;5025521;28;20617;-88
2023/08/19 12:06:02;;;;;;;1.53;1.47;;;31.70;62.10;;;;;;5033560;28;20443;-87
2023/08/19 12:08:32;;;;;;;3.17;2.97;;;31.60;60.30;;;;;;5026561;28;20508;-84
2023/08/19 12:10:59;;;;;;;2.80;2.60;;;31.70;59.80;;;;;;5028778;28;20725;-85
2023/08/19 12:13:27;;;;;;;1.53;1.43;;;31.50;59.60;;;;;;5023808;28;20481;-83
2023/08/19 12:15:55;;;;;;;1.67;1.57;;;31.60;60.90;;;;;;5021405;28;20506;-85
2023/08/19 12:18:23;;;;;;;1.30;1.20;;;31.90;61.50;;;;;;5020852;28;20445;-86
2023/08/19 12:20:51;;;;;;;1.10;1.10;;;32.10;61.20;;;;;;5020339;28;20514;-82
2023/08/19 12:23:19;;;;;;;1.73;1.63;;;32.00;60.20;;;;;;5021569;28;20477;-86
2023/08/19 12:25:56;;;;;;;1.47;1.40;;;32.00;57.50;;;;;;5020590;28;20771;-85
2023/08/19 12:28:24;;;;;;;1.80;1.70;;;31.70;58.10;;;;;;5026965;28;20490;-83
2023/08/19 12:30:52;;;;;;;1.30;1.30;;;31.50;59.90;;;;;;5023098;28;20480;-84
2023/08/19 12:33:20;;;;;;;2.20;2.10;;;31.90;59.70;;;;;;5022365;28;20498;-84
2023/08/19 12:35:49;;;;;;;1.87;1.77;;;31.60;57.50;;;;;;5026582;28;20820;-85
2023/08/19 12:38:25;;;;;;;2.27;2.17;;;31.60;58.00;;;;;;5023530;28;20458;-85
2023/08/19 12:40:52;;;;;;;2.40;2.30;;;31.50;58.90;;;;;;5022520;28;20439;-86
2023/08/19 12:43:19;;;;;;;1.17;1.17;;;31.40;60.40;;;;;;5021000;28;20464;-82
2023/08/19 12:45:46;;;;;;;1.77;1.67;;;31.60;60.10;;;;;;5033594;28;20442;-87
2023/08/19 12:48:13;;;;;;;1.33;1.33;;;31.70;58.60;;;;;;5023761;28;20477;-81
2023/08/19 12:50:40;;;;;;;1.70;1.60;;;31.70;58.40;;;;;;5022218;28;20446;-86
2023/08/19 12:53:08;;;;;;;1.67;1.57;;;31.50;58.60;;;;;;5026432;28;20457;-83
2023/08/19 12:55:35;;;;;;;1.93;1.83;;;31.30;58.20;;;;;;5032550;28;20529;-83
2023/08/19 12:58:04;;;;;;;1.90;1.80;;;31.60;58.50;;;;;;5032740;28;20470;-86
2023/08/19 13:00:31;;;;;;;2.03;1.93;;;31.40;59.10;;;;;;5020862;28;20470;-82
2023/08/19 13:02:58;;;;;;;1.20;1.20;;;31.30;57.50;;;;;;5029914;28;20445;-83
2023/08/19 13:05:25;;;;;;;1.43;1.37;;;31.40;57.70;;;;;;5034119;28;20472;-83
2023/08/19 13:07:55;;;;;;;2.43;2.23;;;31.40;57.30;;;;;;5006471;28;20522;-84
2023/08/19 13:10:22;;;;;;;1.67;1.57;;;31.50;58.40;;;;;;5023244;28;20474;-81
2023/08/19 13:12:49;;;;;;;1.07;1.07;;;31.60;58.50;;;;;;5030050;28;20506;-83
2023/08/19 13:15:18;;;;;;;1.67;1.57;;;31.70;57.40;;;;;;5029850;28;20447;-84
2023/08/19 13:17:46;;;;;;;1.00;1.00;;;31.60;58.30;;;;;;5033255;28;20509;-85
2023/08/19 13:20:17;;;;;;;1.60;1.50;;;31.50;58.50;;;;;;5021892;28;20552;-86
2023/08/19 13:22:46;;;;;;;1.60;1.50;;;31.50;59.30;;;;;;5023952;28;20534;-88
2023/08/19 13:25:13;;;;;;;1.80;1.70;;;31.30;57.40;;;;;;5022565;28;20517;-88
2023/08/19 13:27:41;;;;;;;2.40;2.30;;;31.40;59.50;;;;;;5029799;28;20511;-85
2023/08/19 13:30:09;;;;;;;0.90;0.90;;;31.30;59.10;;;;;;5029117;28;20468;-85
2023/08/19 13:32:36;;;;;;;1.13;1.13;;;31.30;59.30;;;;;;5024735;28;20446;-86
2023/08/19 13:35:07;;;;;;;3.30;3.10;;;31.30;58.70;;;;;;5028041;28;20527;-89
2023/08/19 13:37:34;;;;;;;1.20;1.20;;;31.30;58.80;;;;;;5021075;28;20439;-85
2023/08/19 13:40:04;;;;;;;2.60;2.43;;;31.30;57.50;;;;;;5019827;28;20453;-85